Mobile, AL (36619)

5:35 PM CDT on July 26, 2016 (GMT -0500)
| | Change Station

Elev -9999 ft 0.00 °N, 0.00 °E | Updated

Mostly Cloudy
Mostly Cloudy
81 °F
Feels Like 86 °F
N
10
Wind Variable Wind from SSW
Gusts 15 mph

Today
High -- | Low -- °F
--% Chance of Precip.
Yesterday
High -- | Low -- °F
Precip. -- in
Pressure 29.95 in
Visibility 7.0 miles
Clouds Few 2500 ft
Mostly Cloudy 2900 ft
Mostly Cloudy 4200 ft
Heat Index 86 °F
Dew Point 76 °F
Humidity 84%
Rainfall --
Snow Depth Not available.
6:07 AM 7:50 PM
Waning Gibbous, 50% visible
SPECI KMOB 262233Z 17012KT 7SM -RA FEW025 BKN029 BKN042 28/24 A2995 RMK AO2 RAB33 P0000 T02780244
Pressure 29.95 in
Visibility 7.0 miles
Clouds Few 2500 ft
Mostly Cloudy 2900 ft
Mostly Cloudy 4200 ft
Heat Index 86 °F
Dew Point 76 °F
Humidity 84%
Rainfall --
Snow Depth Not available.
6:07 AM 7:50 PM
Waning Gibbous, 50% visible
SPECI KMOB 262233Z 17012KT 7SM -RA FEW025 BKN029 BKN042 28/24 A2995 RMK AO2 RAB33 P0000 T02780244

10-Day Weather Forecast

Almanac

Astronomy

Jul. 26, 2016 Rise Set
Actual Time
Civil Twilight
Nautical Twilight
Astronomical Twilight
Moon
Length of Visible Light
Length of Day
Tomorrow will be .
, % of the Moon is Illuminated

Today's Extremes

State Highs State Lows

Community

WunderPhotos

Upload Photos

1,927,725 photos uploaded!

WunderBlog® & News

Nearby

Air Quality

  Air Quality AQ Index Pollutant
Not available.

Snow Depth

Station Depth Elevation

Earthquake Activity

City Distance Mag. Time & Date
Minimum magnitude displayed is 2.5.

Coastal Water Temperatures

Place Temperature

Stations

Nearby Weather Stations

Station Location Temp. Windchill Dew Point Humidity Wind Precip. Elev Updated Type
                   

Watches & Warnings

There are currently no watches in effect.